Time;durP1;ratioP1;P1;durP2;ratioP2;P2;SDS_P1;SDS_P2;PMS_P1;PMS_P2;Temp;Humidity;BMP_temperature;BMP_pressure;BME280_temperature;BME280_humidity;BME280_pressure;Samples;Min_cycle;Max_cycle;Signal;HPM_P1;HPM_P2
2021/01/04 00:01:27;;;;;;;411.57;207.23;;;;;;;-0.48;78.62;94541.31;1777976;79;21521;-57
2021/01/04 00:04:27;;;;;;;528.83;271.05;;;;;;;-0.47;78.79;94540.16;1808525;79;21081;-55
2021/01/04 00:07:15;;;;;;;454.87;234.77;;;;;;;-0.42;78.89;94547.88;1808635;78;21068;-56
2021/01/04 00:10:19;;;;;;;482.38;244.70;;;;;;;-0.35;78.77;94553.88;1808346;79;21189;-56
2021/01/04 00:13:12;;;;;;;394.35;194.07;;;;;;;-0.33;78.53;94554.27;1808553;79;21065;-56
2021/01/04 00:15:49;;;;;;;372.85;184.43;;;;;;;-0.31;78.32;94560.06;1808471;79;21129;-55
2021/01/04 00:18:29;;;;;;;341.82;177.38;;;;;;;-0.33;78.07;94548.86;1779787;79;21057;-56
2021/01/04 00:21:08;;;;;;;429.68;210.75;;;;;;;-0.35;78.26;94557.94;1808192;78;21498;-55
2021/01/04 00:24:00;;;;;;;426.35;212.72;;;;;;;-0.31;78.36;94549.25;1807937;78;21274;-56
2021/01/04 00:27:04;;;;;;;406.15;197.82;;;;;;;-0.29;78.10;94545.58;1808109;78;21588;-56
2021/01/04 00:29:31;;;;;;;419.30;206.47;;;;;;;-0.37;77.77;94535.92;1808174;78;21192;-55
2021/01/04 00:32:04;;;;;;;491.90;250.05;;;;;;;-0.51;77.72;94534.53;1807882;79;21145;-55
2021/01/04 00:34:43;;;;;;;507.25;250.80;;;;;;;-0.61;77.71;94543.40;1807932;79;21533;-56
2021/01/04 00:37:29;;;;;;;495.52;246.15;;;;;;;-0.69;77.97;94547.21;1807921;79;22277;-56
2021/01/04 00:40:18;;;;;;;458.25;225.22;;;;;;;-0.69;78.03;94548.56;1807840;79;20892;-56
2021/01/04 00:42:49;;;;;;;424.85;206.80;;;;;;;-0.68;77.90;94541.44;1804115;78;21082;-57
2021/01/04 00:45:28;;;;;;;418.63;199.50;;;;;;;-0.69;77.96;94547.21;1779040;79;21203;-56
2021/01/04 00:48:14;;;;;;;417.45;201.50;;;;;;;-0.71;77.83;94548.95;1807901;79;21510;-56
2021/01/04 00:51:08;;;;;;;385.57;188.22;;;;;;;-0.71;78.07;94546.82;1807872;79;21252;-56
2021/01/04 00:53:43;;;;;;;379.45;191.60;;;;;;;-0.68;78.16;94529.85;1807859;79;20994;-56
2021/01/04 00:56:39;;;;;;;397.35;181.43;;;;;;;-0.70;77.95;94538.91;1807906;79;21549;-55
2021/01/04 00:59:32;;;;;;;408.92;197.20;;;;;;;-0.72;78.04;94541.23;1807917;78;21041;-55
2021/01/04 01:02:23;;;;;;;375.20;175.55;;;;;;;-0.69;78.19;94533.71;1807927;79;21148;-56
2021/01/04 01:05:17;;;;;;;358.38;177.60;;;;;;;-0.69;78.00;94536.41;1807914;78;21238;-54
2021/01/04 01:08:18;;;;;;;394.02;191.15;;;;;;;-0.68;78.02;94537.39;1807823;78;20954;-56
2021/01/04 01:11:00;;;;;;;391.35;184.20;;;;;;;-0.68;77.93;94529.85;1807701;79;21065;-56
2021/01/04 01:13:51;;;;;;;358.17;167.47;;;;;;;-0.71;77.92;94534.67;1776957;78;21188;-56
2021/01/04 01:16:43;;;;;;;384.83;187.92;;;;;;;-0.71;78.16;94536.02;1807906;79;21121;-56
2021/01/04 01:19:47;;;;;;;355.35;163.50;;;;;;;-0.64;78.03;94537.38;1807570;79;22019;-56
2021/01/04 01:22:35;;;;;;;388.85;192.43;;;;;;;-0.71;77.81;94542.77;1807920;79;21089;-55
2021/01/04 01:25:22;;;;;;;371.85;173.75;;;;;;;-0.81;77.78;94543.52;1807797;79;21153;-55
2021/01/04 01:28:31;;;;;;;323.18;156.97;;;;;;;-0.88;77.91;94548.31;1807960;79;21641;-56
2021/01/04 01:31:26;;;;;;;383.90;180.42;;;;;;;-0.88;78.32;94544.82;1807865;79;21172;-58
2021/01/04 01:34:11;;;;;;;318.90;157.45;;;;;;;-0.81;78.20;94551.63;1807701;78;22125;-55
2021/01/04 01:37:03;;;;;;;335.68;164.10;;;;;;;-0.81;78.16;94560.48;1807829;79;21172;-56
2021/01/04 01:40:23;;;;;;;309.77;147.27;;;;;;;-0.78;78.18;94553.56;1808085;78;20982;-57
2021/01/04 01:43:06;;;;;;;298.48;148.57;;;;;;;-0.78;78.18;94553.56;1779441;79;21165;-56
2021/01/04 01:46:01;;;;;;;281.68;145.35;;;;;;;-0.74;77.67;94543.53;1807295;79;21065;-56
2021/01/04 01:48:39;;;;;;;319.35;151.75;;;;;;;-0.78;77.69;94538.11;1807797;79;21202;-56
2021/01/04 01:51:18;;;;;;;334.55;164.05;;;;;;;-0.83;77.80;94527.69;1807817;79;20979;-56
2021/01/04 01:54:00;;;;;;;346.27;166.92;;;;;;;-0.75;78.06;94521.73;1807958;79;20963;-56
2021/01/04 01:56:51;;;;;;;354.45;170.57;;;;;;;-0.67;77.64;94517.89;1808088;79;21081;-56
2021/01/04 01:59:44;;;;;;;343.65;168.75;;;;;;;-0.66;77.53;94514.83;1807877;79;21155;-57
2021/01/04 02:02:36;;;;;;;343.40;171.60;;;;;;;-0.62;77.56;94516.20;1789049;78;21385;-56
2021/01/04 02:05:15;;;;;;;343.25;162.27;;;;;;;-0.55;77.15;94513.50;1740404;80;21498;-57
2021/01/04 02:08:03;;;;;;;354.68;171.68;;;;;;;-0.59;76.99;94510.02;1754952;81;21598;-55
2021/01/04 02:10:38;;;;;;;352.62;169.93;;;;;;;-0.67;77.04;94501.69;1755525;80;21140;-56
2021/01/04 02:13:23;;;;;;;337.93;163.03;;;;;;;-0.73;77.07;94495.91;1755963;81;21078;-56
2021/01/04 02:16:08;;;;;;;379.00;183.25;;;;;;;-0.75;77.37;94497.44;1755729;81;22104;-55
2021/01/04 02:19:16;;;;;;;371.75;181.87;;;;;;;-0.81;77.28;94488.17;1755740;80;21098;-56
2021/01/04 02:22:08;;;;;;;343.45;168.22;;;;;;;-0.83;77.72;94479.66;1755710;80;21077;-56
2021/01/04 02:24:36;;;;;;;353.85;178.23;;;;;;;-0.72;77.87;94469.67;1755529;80;21094;-56
2021/01/04 02:27:12;;;;;;;335.52;158.82;;;;;;;-0.60;77.79;94470.67;1755947;81;21072;-57
2021/01/04 02:29:41;;;;;;;324.65;163.25;;;;;;;-0.53;77.78;94485.53;1755988;81;21371;-55
2021/01/04 02:32:09;;;;;;;351.92;176.07;;;;;;;-0.52;77.92;94485.16;1753305;81;21200;-58
2021/01/04 02:34:43;;;;;;;352.65;171.82;;;;;;;-0.43;78.15;94495.59;1756025;80;21137;-58
2021/01/04 02:37:11;;;;;;;391.63;190.57;;;;;;;-0.33;77.53;94482.09;1755561;81;21166;-59
2021/01/04 02:40:00;;;;;;;334.15;163.80;;;;;;;-0.39;77.17;94493.66;1755947;80;21157;-57
2021/01/04 02:42:34;;;;;;;349.18;172.25;;;;;;;-0.47;77.16;94505.03;1755974;80;22272;-56
2021/01/04 02:45:13;;;;;;;318.57;153.15;;;;;;;-0.50;77.28;94509.07;1755822;81;21118;-56
2021/01/04 02:47:55;;;;;;;363.23;181.87;;;;;;;-0.53;77.28;94520.64;1755377;81;21161;-56
2021/01/04 02:50:41;;;;;;;441.00;215.83;;;;;;;-0.57;77.40;94518.52;1756127;81;21126;-56
2021/01/04 02:53:35;;;;;;;499.30;255.00;;;;;;;-0.61;77.56;94525.84;1755989;80;21065;-56
2021/01/04 02:56:42;;;;;;;376.23;167.05;;;;;;;-0.57;77.83;94526.03;1755011;81;21478;-56
2021/01/04 02:59:35;;;;;;;309.70;150.35;;;;;;;-0.50;78.14;94519.88;1756015;80;21161;-56
2021/01/04 03:02:12;;;;;;;324.52;153.05;;;;;;;-0.52;77.96;94528.94;1755886;81;21125;-55
2021/01/04 03:04:40;;;;;;;305.37;144.17;;;;;;;-0.60;77.88;94530.09;1755885;81;21023;-56
2021/01/04 03:07:14;;;;;;;344.05;155.70;;;;;;;-0.69;78.08;94541.81;1755884;81;21058;-55
2021/01/04 03:09:45;;;;;;;350.20;162.18;;;;;;;-0.73;78.48;94540.47;1755803;81;21205;-57
2021/01/04 03:12:22;;;;;;;354.10;168.93;;;;;;;-0.64;78.93;94537.38;1755663;81;21129;-55
2021/01/04 03:15:17;;;;;;;345.10;165.35;;;;;;;-0.49;79.18;94534.36;1755879;80;21150;-56
2021/01/04 03:18:14;;;;;;;346.40;166.03;;;;;;;-0.35;79.26;94539.02;1755858;80;21058;-55
2021/01/04 03:20:42;;;;;;;325.75;157.85;;;;;;;-0.21;79.19;94527.64;1756013;81;21146;-61
2021/01/04 03:23:11;;;;;;;351.15;165.50;;;;;;;-0.11;79.34;94514.73;1755954;81;22073;-54
2021/01/04 03:25:45;;;;;;;329.32;154.90;;;;;;;-0.04;79.12;94506.63;1755777;81;21094;-56
2021/01/04 03:28:25;;;;;;;298.48;141.88;;;;;;;0.02;79.25;94511.86;1755873;81;21150;-56
2021/01/04 03:30:54;;;;;;;279.68;134.35;;;;;;;0.07;78.99;94506.81;1755849;81;21089;-56
2021/01/04 03:33:22;;;;;;;268.55;125.92;;;;;;;0.02;79.01;94497.75;1755900;80;21185;-56
2021/01/04 03:35:50;;;;;;;234.77;110.75;;;;;;;-0.03;78.76;94493.30;1755846;81;21296;-55
2021/01/04 03:38:18;;;;;;;276.90;130.00;;;;;;;-0.11;78.86;94501.79;1755810;81;21120;-55
2021/01/04 03:40:47;;;;;;;264.08;120.82;;;;;;;-0.19;78.87;94496.95;1755865;81;21074;-55
2021/01/04 03:43:15;;;;;;;270.77;123.92;;;;;;;-0.18;79.10;94499.09;1755898;80;21609;-55
2021/01/04 03:45:43;;;;;;;283.45;130.03;;;;;;;-0.16;79.22;94500.83;1755865;81;21118;-57
2021/01/04 03:48:11;;;;;;;252.97;116.08;;;;;;;-0.16;79.23;94499.47;1755832;81;21398;-58
2021/01/04 03:50:39;;;;;;;308.75;147.78;;;;;;;-0.17;79.28;94508.17;1755876;81;21188;-57
2021/01/04 03:53:07;;;;;;;315.87;145.57;;;;;;;-0.21;79.43;94513.37;1755910;81;21090;-55
2021/01/04 03:55:38;;;;;;;294.43;141.70;;;;;;;-0.22;79.58;94532.10;1755921;81;21078;-55
2021/01/04 03:58:05;;;;;;;313.02;145.62;;;;;;;-0.20;79.71;94524.38;1756015;81;21098;-57
2021/01/04 04:00:33;;;;;;;316.10;143.32;;;;;;;-0.20;79.84;94518.38;1756098;81;22103;-58
2021/01/04 04:03:02;;;;;;;299.27;138.90;;;;;;;-0.13;80.23;94520.33;1755972;80;21157;-58
2021/01/04 04:05:31;;;;;;;267.87;127.40;;;;;;;0.00;80.15;94521.70;1756057;81;21205;-56
2021/01/04 04:08:01;;;;;;;274.88;130.93;;;;;;;0.02;79.83;94521.32;1756036;80;21613;-55
2021/01/04 04:10:29;;;;;;;279.57;142.62;;;;;;;0.01;79.82;94530.00;1753205;81;21209;-55
2021/01/04 04:12:57;;;;;;;238.77;120.45;;;;;;;-0.01;79.91;94532.31;1756002;81;21275;-56
2021/01/04 04:15:25;;;;;;;247.27;124.22;;;;;;;0.03;80.22;94538.49;1755933;81;21070;-56
2021/01/04 04:17:53;;;;;;;268.00;135.00;;;;;;;0.20;80.50;94520.75;1755952;81;21120;-57
2021/01/04 04:20:24;;;;;;;242.90;125.02;;;;;;;0.28;79.89;94531.74;1755956;81;21161;-57
2021/01/04 04:22:54;;;;;;;238.03;115.55;;;;;;;0.25;79.58;94545.45;1755996;81;21149;-57
2021/01/04 04:25:24;;;;;;;230.52;122.60;;;;;;;0.17;79.36;94544.48;1756083;81;22143;-56
2021/01/04 04:27:53;;;;;;;193.17;96.22;;;;;;;0.11;79.42;94537.36;1755921;81;21182;-56
2021/01/04 04:30:23;;;;;;;235.10;123.30;;;;;;;0.06;79.43;94532.31;1755929;81;21157;-56
2021/01/04 04:32:53;;;;;;;231.35;120.45;;;;;;;0.00;79.50;94529.80;1755964;81;21158;-58
2021/01/04 04:35:22;;;;;;;226.18;112.85;;;;;;;0.04;79.68;94531.17;1756023;81;21142;-60
2021/01/04 04:37:50;;;;;;;239.55;115.65;;;;;;;0.03;79.51;94530.38;1755959;81;21987;-60
2021/01/04 04:40:31;;;;;;;230.00;116.45;;;;;;;0.03;79.65;94531.73;1755983;81;21097;-55
2021/01/04 04:43:11;;;;;;;219.15;116.55;;;;;;;0.07;79.72;94523.04;1756003;80;21525;-53
2021/01/04 04:45:40;;;;;;;246.43;122.47;;;;;;;0.17;79.60;94537.16;1755528;81;21136;-55
2021/01/04 04:48:49;;;;;;;254.03;126.58;;;;;;;0.29;79.94;94524.61;1755978;81;21085;-57
2021/01/04 04:51:42;;;;;;;258.70;131.00;;;;;;;0.49;79.72;94540.62;1755939;81;21201;-58
2021/01/04 04:54:26;;;;;;;;;;;;;;;0.67;79.06;94546.80;1758473;81;21174;-57
2021/01/04 04:57:08;;;;;;;225.00;113.75;;;;;;;0.80;78.55;94557.98;1756092;81;20217;-57
2021/01/04 05:00:13;;;;;;;228.58;111.28;;;;;;;0.75;77.90;94551.02;1756101;81;21051;-57
2021/01/04 05:03:07;;;;;;;246.82;119.45;;;;;;;0.70;77.68;94553.34;1708678;82;21109;-58
2021/01/04 05:06:08;;;;;;;221.18;109.00;;;;;;;0.61;77.53;94567.27;1708793;84;21420;-57
2021/01/04 05:08:57;;;;;;;236.40;119.37;;;;;;;0.46;77.38;94561.70;1745818;81;21685;-58
2021/01/04 05:11:34;;;;;;;242.22;119.00;;;;;;;0.33;77.67;94558.40;1755867;80;21451;-57
2021/01/04 05:14:08;;;;;;;203.98;97.50;;;;;;;0.30;78.21;94555.91;1753323;81;21154;-57
2021/01/04 05:16:50;;;;;;;211.10;104.38;;;;;;;0.37;77.84;94542.37;1755543;80;21076;-56
2021/01/04 05:19:43;;;;;;;175.57;93.42;;;;;;;0.29;77.75;94535.99;1756120;81;21385;-57
2021/01/04 05:22:49;;;;;;;183.52;93.72;;;;;;;0.27;77.95;94539.10;1755770;80;21138;-56
2021/01/04 05:25:35;;;;;;;173.90;91.02;;;;;;;0.24;78.03;94529.03;1755886;80;21212;-56
2021/01/04 05:28:31;;;;;;;163.37;85.75;;;;;;;0.32;78.03;94542.77;1755977;81;21101;-57
2021/01/04 05:31:25;;;;;;;171.43;90.55;;;;;;;0.43;77.99;94550.28;1756022;81;21168;-57
2021/01/04 05:34:44;;;;;;;177.22;87.27;;;;;;;0.54;77.60;94552.41;1756023;80;22270;-58
2021/01/04 05:37:42;;;;;;;199.07;105.50;;;;;;;0.52;77.27;94548.53;1755894;80;21157;-57
2021/01/04 05:40:27;;;;;;;160.90;85.85;;;;;;;0.46;77.35;94542.77;1755944;81;21094;-58
2021/01/04 05:43:15;;;;;;;141.30;77.42;;;;;;;0.55;77.33;94548.54;1755783;80;21506;-58
2021/01/04 05:46:15;;;;;;;169.53;93.58;;;;;;;0.56;77.12;94552.79;1756015;81;21137;-56
2021/01/04 05:49:09;;;;;;;194.02;99.83;;;;;;;0.45;77.24;94546.59;1755899;81;21453;-57
2021/01/04 05:51:46;;;;;;;213.10;97.50;;;;;;;0.48;77.32;94540.44;1704729;84;21145;-58
2021/01/04 05:54:17;;;;;;;163.92;90.32;;;;;;;0.56;77.21;94532.49;1704962;82;21660;-57
2021/01/04 05:56:45;;;;;;;187.92;98.37;;;;;;;0.55;76.65;94532.30;1683042;81;21066;-56
2021/01/04 05:59:15;;;;;;;189.45;103.35;;;;;;;0.43;76.46;94527.87;1755900;80;21113;-56
2021/01/04 06:01:45;;;;;;;225.80;111.62;;;;;;;0.31;76.67;94534.45;1755915;81;21202;-56
2021/01/04 06:04:26;;;;;;;240.05;118.80;;;;;;;0.25;76.74;94537.34;1755832;81;21149;-57
2021/01/04 06:06:58;;;;;;;;;;;;;;;0.24;76.79;94535.79;1756909;81;21122;-58
2021/01/04 06:09:27;;;;;;;231.43;109.57;;;;;;;0.18;76.75;94541.41;1755925;81;20232;-59
2021/01/04 06:12:09;;;;;;;245.02;116.12;;;;;;;0.15;77.04;94543.53;1757058;81;21054;-58
2021/01/04 06:14:37;;;;;;;217.65;109.52;;;;;;;0.23;77.21;94541.02;1759053;81;21210;-58
2021/01/04 06:17:10;;;;;;;224.30;109.97;;;;;;;0.29;76.87;94546.25;1759650;81;21105;-58
2021/01/04 06:19:42;;;;;;;214.88;111.30;;;;;;;0.28;76.79;94554.17;1756690;81;21157;-58
2021/01/04 06:22:17;;;;;;;220.27;108.20;;;;;;;0.23;76.84;94555.88;1759748;81;21166;-58
2021/01/04 06:24:46;;;;;;;233.20;109.70;;;;;;;0.18;76.91;94561.69;1759691;81;21074;-59
2021/01/04 06:27:35;;;;;;;221.05;109.10;;;;;;;0.24;77.18;94555.32;1736039;81;21194;-58
2021/01/04 06:30:30;;;;;;;226.35;110.97;;;;;;;0.35;77.07;94554.16;1759530;81;21177;-58
2021/01/04 06:33:19;;;;;;;275.82;135.35;;;;;;;0.49;76.93;94558.22;1759600;81;21081;-59
2021/01/04 06:35:50;;;;;;;340.00;166.00;;;;;;;0.67;76.78;94566.30;1750346;81;21530;-58
2021/01/04 06:38:27;;;;;;;291.68;149.07;;;;;;;0.75;76.43;94561.09;1753251;80;21083;-58
2021/01/04 06:40:56;;;;;;;269.37;137.03;;;;;;;0.85;76.19;94567.05;1752370;80;21190;-57
2021/01/04 06:43:35;;;;;;;273.98;144.70;;;;;;;0.93;76.11;94570.71;1772033;78;21108;-58
2021/01/04 06:46:28;;;;;;;288.70;148.80;;;;;;;1.00;75.78;94576.10;1736409;81;21578;-57
2021/01/04 06:49:18;;;;;;;309.83;160.50;;;;;;;1.07;75.93;94578.81;1759591;80;21482;-57
2021/01/04 06:52:31;;;;;;;326.50;166.12;;;;;;;1.25;75.69;94574.69;1749358;80;21092;-58
2021/01/04 06:55:14;;;;;;;281.60;144.68;;;;;;;1.33;75.14;94560.73;1726077;82;22142;-57
2021/01/04 06:58:12;;;;;;;275.05;146.22;;;;;;;1.36;74.98;94559.18;1726233;83;21869;-58
2021/01/04 07:01:13;;;;;;;288.18;152.87;;;;;;;1.36;74.86;94558.58;1763216;80;21158;-64
2021/01/04 07:03:50;;;;;;;277.38;149.62;;;;;;;1.39;75.08;94550.27;1759549;80;21644;-59
2021/01/04 07:06:48;;;;;;;353.00;183.05;;;;;;;1.49;74.89;94547.50;1763196;80;21596;-58
2021/01/04 07:09:42;;;;;;;339.10;182.12;;;;;;;1.53;74.61;94553.67;1737966;81;21438;-56
2021/01/04 07:12:39;;;;;;;;;;;;;;;1.56;74.59;94548.06;1767615;79;21216;-59
2021/01/04 07:15:31;;;;;;;223.90;121.02;;;;;;;1.63;74.29;94537.95;1766479;81;20225;-57
2021/01/04 07:18:37;;;;;;;271.50;146.07;;;;;;;1.60;74.34;94546.88;1767557;80;21091;-57
2021/01/04 07:21:45;;;;;;;257.80;142.75;;;;;;;1.55;74.26;94548.66;1767558;80;21685;-58
2021/01/04 07:24:25;;;;;;;260.48;143.02;;;;;;;1.48;74.25;94545.95;1767088;81;22320;-61
2021/01/04 07:27:32;;;;;;;331.85;184.78;;;;;;;1.40;74.36;94544.45;1765994;81;21151;-57
2021/01/04 07:30:18;;;;;;;326.88;175.82;;;;;;;1.35;74.65;94540.78;1738429;81;21129;-58
2021/01/04 07:33:03;;;;;;;330.73;182.47;;;;;;;1.37;74.97;94546.61;1736767;81;21086;-58
2021/01/04 07:35:45;;;;;;;352.43;195.92;;;;;;;1.42;74.90;94539.41;1767536;81;21149;-56
2021/01/04 07:38:26;;;;;;;290.35;160.70;;;;;;;1.42;74.85;94538.06;1766002;81;22140;-58
2021/01/04 07:41:08;;;;;;;278.87;158.93;;;;;;;1.46;74.77;94544.23;1729778;81;21597;-55
2021/01/04 07:43:53;;;;;;;310.70;174.77;;;;;;;1.43;74.83;94539.60;1733279;81;21148;-55
2021/01/04 07:47:16;;;;;;;304.60;172.85;;;;;;;1.41;75.08;94539.80;1758560;81;21138;-61
2021/01/04 07:50:36;;;;;;;274.85;150.55;;;;;;;1.51;74.99;94545.77;1711131;82;21114;-61
2021/01/04 07:53:49;;;;;;;308.40;174.77;;;;;;;1.56;74.91;94546.70;1750721;80;21215;-57
2021/01/04 07:57:02;;;;;;;287.57;160.28;;;;;;;1.59;75.40;94545.91;1760612;79;21146;-62
2021/01/04 08:00:01;;;;;;;246.32;132.40;;;;;;;1.71;75.24;94554.36;1692574;81;21140;-60
2021/01/04 08:03:13;;;;;;;271.95;137.52;;;;;;;1.81;74.96;94557.61;1735775;81;21183;-60
2021/01/04 08:06:05;;;;;;;318.63;163.00;;;;;;;1.84;74.78;94555.46;1776504;79;21142;-60
2021/01/04 08:08:45;;;;;;;280.95;146.35;;;;;;;1.83;74.77;94540.36;1758008;79;22321;-63
2021/01/04 08:11:53;;;;;;;221.60;126.27;;;;;;;1.85;74.86;94525.81;1770264;79;21139;-59
2021/01/04 08:14:53;;;;;;;251.98;142.72;;;;;;;1.86;75.00;94530.86;1767419;80;21178;-59
2021/01/04 08:17:31;;;;;;;291.40;166.88;;;;;;;1.84;74.98;94536.48;1763293;81;21131;-59
2021/01/04 08:20:05;;;;;;;274.40;161.22;;;;;;;1.78;75.22;94536.72;1774349;80;21123;-60
2021/01/04 08:23:05;;;;;;;259.05;151.97;;;;;;;1.81;75.47;94527.78;1756092;80;21381;-61
2021/01/04 08:25:48;;;;;;;332.23;186.07;;;;;;;1.89;75.47;94539.55;1744816;81;21149;-60
2021/01/04 08:28:22;;;;;;;324.75;185.75;;;;;;;1.97;75.36;94541.03;1758599;80;21187;-57
2021/01/04 08:31:13;;;;;;;321.25;187.60;;;;;;;2.11;75.53;94538.84;1763104;79;21184;-55
2021/01/04 08:33:54;;;;;;;347.40;200.28;;;;;;;2.31;75.07;94537.14;1886632;75;22095;-58
2021/01/04 08:36:30;;;;;;;291.75;170.92;;;;;;;2.31;74.70;94546.03;1829091;77;21201;-60
2021/01/04 08:39:13;;;;;;;306.90;183.65;;;;;;;2.35;74.65;94539.23;1826054;78;21542;-60
2021/01/04 08:42:05;;;;;;;268.90;160.57;;;;;;;2.44;74.56;94537.61;1805806;77;21195;-59
2021/01/04 08:45:09;;;;;;;227.30;136.22;;;;;;;2.51;74.40;94546.28;1816018;78;21175;-56
2021/01/04 08:47:56;;;;;;;288.00;173.02;;;;;;;2.57;73.99;94545.45;1843767;77;21154;-58
2021/01/04 08:50:35;;;;;;;246.32;145.50;;;;;;;2.54;74.02;94544.12;1840513;77;21127;-60
2021/01/04 08:53:22;;;;;;;293.33;177.80;;;;;;;2.55;73.94;94540.23;1837475;77;21416;-61
2021/01/04 08:55:56;;;;;;;302.38;179.55;;;;;;;2.54;74.04;94547.59;1843717;76;21119;-58
2021/01/04 08:58:40;;;;;;;257.20;154.23;;;;;;;2.59;74.47;94538.25;1854114;76;21091;-60
2021/01/04 09:01:26;;;;;;;246.68;148.45;;;;;;;2.80;74.30;94533.98;1837930;76;21103;-61
2021/01/04 09:04:07;;;;;;;252.72;156.28;;;;;;;2.85;73.80;94534.31;1842020;76;21504;-59
2021/01/04 09:06:51;;;;;;;230.43;143.75;;;;;;;2.88;73.65;94532.14;1822839;77;21325;-57
2021/01/04 09:09:23;;;;;;;217.95;125.10;;;;;;;2.95;73.70;94532.09;1832459;77;21090;-60
2021/01/04 09:12:22;;;;;;;147.22;86.63;;;;;;;2.99;73.37;94526.03;1794372;77;21186;-59
2021/01/04 09:28:41;;;;;;;147.37;92.10;;;;;;;3.04;73.93;94485.43;1850899;77;26327;-55
2021/01/04 09:33:48;;;;;;;247.50;151.12;;;;;;;3.37;73.61;94476.47;1819651;77;25937;-52
2021/01/04 09:36:23;;;;;;;271.52;170.15;;;;;;;3.50;73.69;94479.02;1772743;78;21603;-54
2021/01/04 09:38:58;;;;;;;328.35;203.15;;;;;;;3.72;73.43;94476.78;1796629;78;21371;-50
2021/01/04 09:41:26;;;;;;;233.63;146.55;;;;;;;3.83;73.23;94471.38;1777260;79;21210;-52
2021/01/04 09:48:42;;;;;;;186.92;122.92;;;;;;;3.80;72.77;94459.95;1819848;77;26006;-55
2021/01/04 09:51:11;;;;;;;180.52;115.75;;;;;;;3.90;72.61;94467.18;1777669;79;21160;-56
2021/01/04 09:53:40;;;;;;;210.72;130.35;;;;;;;3.97;72.21;94452.13;1758202;79;21381;-52
2021/01/04 09:56:12;;;;;;;235.97;138.12;;;;;;;3.99;72.25;94456.56;1774455;78;21583;-57
2021/01/04 09:58:41;;;;;;;212.53;129.03;;;;;;;3.95;72.12;94454.49;1768273;78;21195;-54
2021/01/04 10:01:16;;;;;;;187.10;111.22;;;;;;;3.98;72.10;94436.55;1757767;79;21673;-51
2021/01/04 10:03:56;;;;;;;190.90;109.10;;;;;;;4.11;72.20;94431.50;1766041;78;21073;-50
2021/01/04 10:06:25;;;;;;;177.38;109.30;;;;;;;4.19;71.74;94424.75;1726540;79;21239;-51
2021/01/04 10:08:56;;;;;;;160.65;102.32;;;;;;;4.27;71.57;94409.06;1761601;79;21197;-51
2021/01/04 10:11:24;;;;;;;146.65;98.70;;;;;;;4.37;71.53;94400.71;1781357;78;21151;-54
2021/01/04 10:13:53;;;;;;;193.57;128.10;;;;;;;4.42;71.36;94392.05;1724618;79;21186;-55
2021/01/04 10:16:23;;;;;;;178.90;117.15;;;;;;;4.43;71.21;94386.78;1703616;79;21179;-51
2021/01/04 10:19:00;;;;;;;182.40;115.60;;;;;;;4.50;71.24;94392.13;1686181;83;21494;-52
2021/01/04 10:21:48;;;;;;;159.03;103.75;;;;;;;4.59;71.16;94380.07;1730913;80;21208;-53
2021/01/04 10:24:25;;;;;;;153.23;96.97;;;;;;;4.66;70.84;94377.23;1725267;81;21187;-54
2021/01/04 10:26:56;;;;;;;144.50;94.35;;;;;;;4.72;70.97;94376.91;1763485;79;21612;-50
2021/01/04 10:29:26;;;;;;;153.40;102.58;;;;;;;4.96;70.88;94363.38;1763100;80;21143;-51
2021/01/04 10:32:05;;;;;;;206.82;131.52;;;;;;;5.25;70.82;94356.16;1786334;79;22093;-51
2021/01/04 10:34:45;;;;;;;187.50;121.02;;;;;;;5.52;70.85;94358.08;1744685;80;21158;-52
2021/01/04 10:37:34;;;;;;;128.40;86.17;;;;;;;5.81;70.46;94367.20;1762358;78;21184;-53
2021/01/04 10:40:10;;;;;;;117.75;77.08;;;;;;;6.05;69.62;94371.28;1760028;78;21563;-50
2021/01/04 10:42:39;;;;;;;145.47;92.75;;;;;;;6.24;68.93;94371.78;1782544;79;21156;-51
2021/01/04 10:45:16;;;;;;;133.10;89.83;;;;;;;6.32;68.80;94355.41;1780193;79;21263;-52
2021/01/04 10:48:01;;;;;;;111.77;72.97;;;;;;;6.38;68.45;94355.83;1742166;79;21200;-54
2021/01/04 10:50:42;;;;;;;99.32;64.92;;;;;;;6.32;68.17;94362.98;1731046;80;21170;-56
2021/01/04 10:53:15;;;;;;;51.05;35.00;;;;;;;6.38;68.55;94359.14;1760152;80;21198;-58
2021/01/04 10:56:10;;;;;;;;;;;;;;;6.42;68.35;94355.72;1739033;80;21215;-55
2021/01/04 10:58:53;;;;;;;70.15;43.23;;;;;;;6.47;68.09;94356.55;1758359;80;21272;-53
2021/01/04 11:01:25;;;;;;;120.77;73.52;;;;;;;6.56;67.94;94358.09;1718691;82;21171;-51
2021/01/04 11:04:02;;;;;;;123.65;82.22;;;;;;;6.64;67.55;94345.75;1727795;81;21208;-53
2021/01/04 11:06:35;;;;;;;121.20;80.45;;;;;;;6.58;67.11;94342.80;1708011;81;21191;-51
2021/01/04 11:09:27;;;;;;;145.65;88.45;;;;;;;6.44;67.31;94336.34;1690060;83;21143;-53
2021/01/04 11:12:23;;;;;;;143.78;93.00;;;;;;;6.39;67.71;94330.05;1693282;83;21449;-53
2021/01/04 11:14:59;;;;;;;140.97;90.03;;;;;;;6.43;67.57;94321.73;1689626;83;21115;-51
2021/01/04 11:17:34;;;;;;;147.93;94.47;;;;;;;6.39;67.74;94304.67;1742223;80;21107;-51
2021/01/04 11:20:17;;;;;;;151.18;101.25;;;;;;;6.43;67.93;94306.13;1761630;80;21096;-53
2021/01/04 11:22:44;;;;;;;198.13;124.07;;;;;;;6.43;67.59;94310.80;1690572;82;21192;-55
2021/01/04 11:25:13;;;;;;;167.57;107.43;;;;;;;6.36;67.55;94300.83;1706001;82;22116;-54
2021/01/04 11:27:41;;;;;;;172.10;110.92;;;;;;;6.32;67.79;94299.41;1729111;82;21156;-52
2021/01/04 11:30:15;;;;;;;159.50;100.62;;;;;;;6.28;67.98;94289.16;1728673;82;21524;-53
2021/01/04 11:32:42;;;;;;;140.68;93.37;;;;;;;6.23;68.17;94291.05;1708318;82;21152;-52
2021/01/04 11:35:11;;;;;;;150.55;101.35;;;;;;;6.12;68.33;94282.39;1719913;82;21612;-56
2021/01/04 11:37:39;;;;;;;135.55;90.55;;;;;;;6.05;68.76;94280.60;1698545;82;21232;-52
2021/01/04 11:40:10;;;;;;;151.65;99.87;;;;;;;6.05;68.95;94260.71;1706909;82;21564;-55
2021/01/04 11:42:39;;;;;;;149.90;98.80;;;;;;;6.02;69.07;94258.84;1705841;82;21081;-51
2021/01/04 11:45:09;;;;;;;149.87;96.35;;;;;;;5.98;69.37;94247.25;1754398;80;21195;-50
2021/01/04 11:47:39;;;;;;;137.85;93.47;;;;;;;6.03;69.50;94253.55;1744989;80;21203;-52
2021/01/04 11:50:09;;;;;;;138.70;92.72;;;;;;;6.13;69.40;94249.78;1758528;80;22380;-55
2021/01/04 11:52:37;;;;;;;138.22;90.83;;;;;;;6.20;69.01;94248.22;1743204;80;21195;-53
2021/01/04 11:55:08;;;;;;;182.60;108.87;;;;;;;6.14;68.98;94249.34;1755234;80;21131;-52
2021/01/04 11:57:37;;;;;;;174.72;105.97;;;;;;;6.16;69.16;94247.55;1738554;80;21238;-53
2021/01/04 12:00:08;;;;;;;216.38;126.30;;;;;;;6.18;69.06;94240.45;1704265;82;21586;-52
2021/01/04 12:02:36;;;;;;;205.90;128.55;;;;;;;6.16;69.29;94244.20;1677968;84;22148;-56
2021/01/04 12:05:06;;;;;;;186.22;120.97;;;;;;;6.22;69.53;94252.66;1693087;83;21198;-55
2021/01/04 12:07:33;;;;;;;196.47;126.18;;;;;;;6.32;69.66;94244.78;1689204;83;21168;-54
2021/01/04 12:10:04;;;;;;;156.47;103.65;;;;;;;6.43;69.41;94245.23;1686455;83;21101;-54
2021/01/04 12:12:32;;;;;;;141.68;92.80;;;;;;;6.50;69.02;94241.71;1675846;83;21231;-56
2021/01/04 12:15:00;;;;;;;140.73;88.20;;;;;;;6.47;68.61;94240.44;1697202;83;21444;-53
2021/01/04 12:17:28;;;;;;;160.70;105.30;;;;;;;6.36;68.68;94244.08;1701692;83;21185;-52
2021/01/04 12:19:56;;;;;;;151.10;99.75;;;;;;;6.25;68.84;94242.23;1695523;83;21805;-52
2021/01/04 12:22:24;;;;;;;146.87;92.10;;;;;;;6.12;69.01;94244.16;1702857;83;21214;-52
2021/01/04 12:24:53;;;;;;;155.35;98.97;;;;;;;6.00;69.33;94233.33;1704979;82;21087;-52
2021/01/04 12:27:21;;;;;;;152.55;95.77;;;;;;;5.93;69.57;94228.06;1703350;83;22289;-52
2021/01/04 12:29:49;;;;;;;174.93;108.22;;;;;;;5.91;69.84;94229.67;1666751;84;21194;-52
2021/01/04 12:32:18;;;;;;;173.87;105.55;;;;;;;5.89;70.04;94234.22;1695927;83;21144;-52
2021/01/04 12:34:47;;;;;;;189.43;117.25;;;;;;;5.94;70.16;94230.20;1700211;83;21733;-53